createdAt,value
2018-08-06T00:02:07.571Z,1.37
2018-08-06T00:07:05.080Z,1.50
2018-08-06T00:12:07.995Z,1.30
2018-08-06T00:17:05.731Z,1.50
2018-08-06T00:22:03.202Z,2.07
2018-08-06T00:27:00.603Z,1.70
2018-08-06T00:31:58.030Z,1.60
2018-08-06T00:36:55.607Z,1.50
2018-08-06T00:41:53.836Z,1.63
2018-08-06T00:46:51.326Z,1.57
2018-08-06T00:51:48.717Z,1.70
2018-08-06T00:56:46.115Z,1.63
2018-08-06T01:01:43.567Z,1.90
2018-08-06T01:06:40.967Z,1.70
2018-08-06T01:11:38.492Z,1.60
2018-08-06T01:16:35.925Z,1.40
2018-08-06T01:21:33.371Z,1.60
2018-08-06T01:26:30.806Z,2.00
2018-08-06T01:31:28.220Z,1.60
2018-08-06T01:36:25.643Z,1.47
2018-08-06T01:41:23.086Z,1.70
2018-08-06T01:46:20.531Z,1.70
2018-08-06T01:51:17.968Z,1.80
2018-08-06T01:56:15.359Z,2.10
2018-08-06T02:01:12.806Z,1.70
2018-08-06T02:06:10.191Z,2.00
2018-08-06T02:11:18.507Z,2.60
2018-08-06T02:16:15.987Z,2.60
2018-08-06T02:21:13.410Z,2.20
2018-08-06T02:26:10.808Z,2.03
2018-08-06T02:31:08.248Z,2.43
2018-08-06T02:36:05.715Z,2.13
2018-08-06T02:41:03.132Z,1.90
2018-08-06T02:46:00.558Z,2.10
2018-08-06T02:50:58.018Z,2.10
2018-08-06T02:55:55.419Z,2.10
2018-08-06T03:00:52.846Z,2.33
2018-08-06T03:05:50.263Z,2.23
2018-08-06T03:10:47.711Z,2.30
2018-08-06T03:15:45.175Z,2.27
2018-08-06T03:20:42.618Z,2.10
2018-08-06T03:25:40.127Z,2.40
2018-08-06T03:30:37.540Z,2.60
2018-08-06T03:35:34.951Z,2.27
2018-08-06T03:40:32.419Z,2.27
2018-08-06T03:45:29.878Z,2.10
2018-08-06T03:50:27.302Z,2.60
2018-08-06T03:55:24.760Z,2.50
2018-08-06T04:00:22.203Z,2.00
2018-08-06T04:05:19.639Z,2.60
2018-08-06T04:10:17.494Z,2.33
2018-08-06T04:15:15.023Z,2.40
2018-08-06T04:20:13.039Z,2.80
2018-08-06T04:25:10.557Z,2.80
2018-08-06T04:30:10.322Z,2.10
2018-08-06T04:35:07.728Z,3.33
2018-08-06T04:40:06.691Z,2.80
2018-08-06T04:45:05.275Z,2.33
2018-08-06T04:50:02.915Z,2.33
2018-08-06T04:55:00.354Z,2.90
2018-08-06T04:59:57.852Z,2.77
2018-08-06T05:04:55.268Z,2.77
2018-08-06T05:09:52.942Z,2.60
2018-08-06T05:14:50.432Z,2.30
2018-08-06T05:19:47.830Z,2.97
2018-08-06T05:24:45.322Z,2.97
2018-08-06T05:29:42.817Z,2.57
2018-08-06T05:34:40.271Z,2.67
2018-08-06T05:39:37.735Z,1.90
2018-08-06T05:44:35.211Z,2.10
2018-08-06T05:49:32.739Z,1.70
2018-08-06T05:54:30.187Z,2.20
2018-08-06T05:59:27.635Z,2.10
2018-08-06T06:04:25.102Z,1.37
2018-08-06T06:09:22.583Z,1.53
2018-08-06T06:14:20.146Z,1.67
2018-08-06T06:19:17.693Z,1.23
2018-08-06T06:24:15.039Z,1.00
2018-08-06T06:29:12.430Z,1.10
2018-08-06T06:34:09.995Z,1.00
2018-08-06T06:39:09.033Z,1.40
2018-08-06T06:44:06.966Z,1.27
2018-08-06T06:49:04.452Z,1.23
2018-08-06T06:54:01.933Z,0.90
2018-08-06T06:58:59.388Z,1.13
2018-08-06T07:03:56.844Z,1.20
2018-08-06T07:08:54.398Z,1.00
2018-08-06T07:13:51.972Z,1.07
2018-08-06T07:18:49.355Z,1.07
2018-08-06T07:23:46.754Z,1.27
2018-08-06T07:28:44.204Z,1.30
2018-08-06T07:33:41.669Z,1.07
2018-08-06T07:38:39.155Z,1.67
2018-08-06T07:43:36.582Z,0.87
2018-08-06T07:48:34.071Z,1.20
2018-08-06T07:53:31.543Z,0.97
2018-08-06T07:58:30.035Z,0.83
2018-08-06T08:03:27.526Z,1.07
2018-08-06T08:08:24.927Z,0.60
2018-08-06T08:13:22.364Z,0.70
2018-08-06T08:18:19.852Z,0.87
2018-08-06T08:23:17.288Z,0.90
2018-08-06T08:28:14.713Z,0.60
2018-08-06T08:33:12.204Z,0.90
2018-08-06T08:38:09.642Z,1.03
2018-08-06T08:43:07.123Z,1.00
2018-08-06T08:48:04.970Z,0.70
2018-08-06T08:53:02.411Z,0.97
2018-08-06T08:57:59.867Z,1.00
2018-08-06T09:02:57.310Z,0.70
2018-08-06T09:07:54.775Z,0.70
2018-08-06T09:12:52.282Z,0.90
2018-08-06T09:17:49.752Z,0.77
2018-08-06T09:22:47.387Z,0.70
2018-08-06T09:27:46.495Z,1.20
2018-08-06T09:32:46.267Z,0.50
2018-08-06T09:37:43.688Z,0.70
2018-08-06T09:42:42.859Z,1.30
2018-08-06T09:47:41.473Z,1.23
2018-08-06T09:52:39.154Z,1.00
2018-08-06T09:57:36.587Z,0.80
2018-08-06T10:02:34.008Z,0.80
2018-08-06T10:07:31.401Z,1.00
2018-08-06T10:12:35.399Z,1.10
2018-08-06T10:17:32.860Z,0.50
2018-08-06T10:22:30.296Z,0.80
2018-08-06T10:27:27.863Z,0.80
2018-08-06T10:32:25.372Z,0.60
2018-08-06T10:37:22.849Z,0.63
2018-08-06T10:42:24.473Z,0.70
2018-08-06T10:47:22.047Z,0.70
2018-08-06T10:52:19.541Z,0.80
2018-08-06T10:57:16.956Z,3.53
2018-08-06T11:02:14.399Z,0.80
2018-08-06T11:07:12.643Z,0.70
2018-08-06T11:12:19.406Z,0.50
2018-08-06T11:17:16.946Z,0.53
2018-08-06T11:22:14.391Z,0.60
2018-08-06T11:27:11.868Z,0.87
2018-08-06T11:32:09.345Z,0.60
2018-08-06T11:37:06.863Z,0.90
2018-08-06T11:42:13.502Z,0.80
2018-08-06T11:47:11.039Z,0.73
2018-08-06T11:52:09.894Z,0.50
2018-08-06T11:57:07.456Z,0.87
2018-08-06T12:02:05.408Z,0.70
2018-08-06T12:07:02.878Z,0.77
2018-08-06T12:12:02.838Z,0.60
2018-08-06T12:17:00.323Z,0.50
2018-08-06T12:21:57.869Z,0.73
2018-08-06T12:26:55.363Z,0.70
2018-08-06T12:31:52.880Z,0.60
2018-08-06T12:36:50.392Z,0.77
2018-08-06T12:41:50.334Z,0.70
2018-08-06T12:46:47.948Z,0.70
2018-08-06T12:51:45.420Z,0.70
2018-08-06T12:56:42.960Z,0.47
2018-08-06T13:01:40.507Z,0.73
2018-08-06T13:06:37.991Z,1.00
2018-08-06T13:11:35.436Z,0.90
2018-08-06T13:16:32.858Z,0.70
2018-08-06T13:21:30.522Z,0.70
2018-08-06T13:26:28.060Z,0.70
2018-08-06T13:31:25.633Z,0.70
2018-08-06T13:36:23.423Z,0.60
2018-08-06T13:41:20.890Z,0.50
2018-08-06T13:46:18.372Z,0.70
2018-08-06T13:51:15.883Z,0.63
2018-08-06T13:56:13.356Z,0.87
2018-08-06T14:01:10.850Z,0.70
2018-08-06T14:06:08.399Z,0.63
2018-08-06T14:11:05.927Z,0.90
2018-08-06T14:16:03.399Z,0.70
2018-08-06T14:21:00.824Z,0.73
2018-08-06T14:25:58.380Z,0.87
2018-08-06T14:30:55.782Z,0.67
2018-08-06T14:35:53.179Z,0.67
2018-08-06T14:40:50.676Z,0.90
2018-08-06T14:45:48.207Z,0.90
2018-08-06T14:50:45.734Z,0.93
2018-08-06T14:55:43.189Z,0.70
2018-08-06T15:00:40.715Z,0.80
2018-08-06T15:05:38.163Z,0.80
2018-08-06T15:10:35.619Z,0.87
2018-08-06T15:15:33.031Z,0.87
2018-08-06T15:20:30.451Z,0.63
2018-08-06T15:25:27.873Z,0.70
2018-08-06T15:30:25.360Z,0.73
2018-08-06T15:35:22.823Z,0.70
2018-08-06T15:40:20.631Z,1.23
2018-08-06T15:45:18.114Z,0.90
2018-08-06T15:50:18.435Z,0.83
2018-08-06T15:55:15.937Z,0.80
2018-08-06T16:00:20.022Z,0.67
2018-08-06T16:05:17.571Z,0.60
2018-08-06T16:10:15.424Z,0.87
2018-08-06T16:15:13.905Z,0.87
2018-08-06T16:20:13.054Z,0.50
2018-08-06T16:25:11.707Z,0.67
2018-08-06T16:30:15.639Z,0.80
2018-08-06T16:35:13.091Z,0.83
2018-08-06T16:40:11.702Z,0.80
2018-08-06T16:45:09.759Z,0.57
2018-08-06T16:50:12.064Z,0.70
2018-08-06T16:55:09.959Z,0.70
2018-08-06T17:00:12.641Z,0.80
2018-08-06T17:05:11.777Z,1.33
2018-08-06T17:10:11.904Z,1.07
2018-08-06T17:15:10.785Z,0.90
2018-08-06T17:20:13.077Z,0.80
2018-08-06T17:25:11.366Z,0.80
2018-08-06T17:30:09.424Z,0.73
2018-08-06T17:35:08.668Z,0.60
2018-08-06T17:40:10.023Z,0.80
2018-08-06T17:45:10.764Z,0.80
2018-08-06T17:50:10.600Z,0.73
2018-08-06T17:55:08.027Z,1.20
2018-08-06T18:00:06.211Z,0.70
2018-08-06T18:05:04.007Z,0.90
2018-08-06T18:10:01.474Z,0.73
2018-08-06T18:15:00.000Z,0.70
2018-08-06T18:19:57.610Z,0.80
2018-08-06T18:24:55.064Z,0.60
2018-08-06T18:29:52.516Z,0.80
2018-08-06T18:34:49.935Z,1.40
2018-08-06T18:39:47.345Z,1.20
2018-08-06T18:44:44.792Z,1.50
2018-08-06T18:49:42.273Z,1.60
2018-08-06T18:54:39.767Z,1.10
2018-08-06T18:59:37.186Z,1.47
2018-08-06T19:04:34.599Z,1.80
2018-08-06T19:09:32.219Z,1.27
2018-08-06T19:14:29.677Z,1.57
2018-08-06T19:19:28.381Z,1.83
2018-08-06T19:24:31.572Z,1.80
2018-08-06T19:29:28.972Z,1.53
2018-08-06T19:34:26.411Z,1.90
2018-08-06T19:39:24.011Z,1.80
2018-08-06T19:44:21.531Z,1.70
2018-08-06T19:49:24.675Z,1.80
2018-08-06T19:54:22.111Z,1.77
2018-08-06T19:59:21.904Z,1.40
2018-08-06T20:04:20.197Z,1.87
2018-08-06T20:09:17.674Z,1.77
2018-08-06T20:14:15.106Z,2.00
2018-08-06T20:19:12.583Z,2.70
2018-08-06T20:24:10.008Z,2.23
2018-08-06T20:29:07.423Z,1.90
2018-08-06T20:34:05.216Z,1.80
2018-08-06T20:39:02.759Z,3.70
2018-08-06T20:44:00.255Z,2.17
2018-08-06T20:48:57.731Z,2.37
2018-08-06T20:53:55.267Z,3.70
2018-08-06T20:58:52.755Z,3.17
2018-08-06T21:03:50.216Z,2.30
2018-08-06T21:08:47.639Z,1.90
2018-08-06T21:13:46.356Z,2.00
2018-08-06T21:18:43.767Z,1.60
2018-08-06T21:23:41.250Z,2.20
2018-08-06T21:28:38.618Z,2.27
2018-08-06T21:33:35.989Z,1.77
2018-08-06T21:38:33.383Z,2.33
2018-08-06T21:43:30.787Z,2.13
2018-08-06T21:48:28.175Z,2.50
2018-08-06T21:53:25.598Z,2.70
2018-08-06T21:58:23.000Z,2.50
2018-08-06T22:03:20.386Z,1.70
2018-08-06T22:08:17.784Z,2.00
2018-08-06T22:13:15.219Z,2.73
2018-08-06T22:18:12.670Z,2.10
2018-08-06T22:23:10.069Z,2.13
2018-08-06T22:28:09.513Z,2.30
2018-08-06T22:33:06.978Z,1.90
2018-08-06T22:38:04.375Z,1.90
2018-08-06T22:43:01.872Z,1.90
2018-08-06T22:47:59.327Z,1.60
2018-08-06T22:52:56.738Z,2.83
2018-08-06T22:57:54.222Z,2.43
2018-08-06T23:02:51.634Z,2.20
2018-08-06T23:07:49.005Z,2.07
2018-08-06T23:12:47.587Z,1.93
2018-08-06T23:17:45.429Z,1.97
2018-08-06T23:22:42.891Z,1.70
2018-08-06T23:27:40.273Z,2.10
2018-08-06T23:32:38.004Z,1.73
2018-08-06T23:37:35.452Z,1.50
2018-08-06T23:42:38.654Z,2.20
2018-08-06T23:47:36.658Z,1.57
2018-08-06T23:52:34.071Z,2.20
2018-08-06T23:57:31.560Z,2.40
